createdAt,value
2023-05-06T00:00:22.578Z,101747.59
2023-05-06T00:02:49.588Z,101741.47
2023-05-06T00:05:18.571Z,101744.44
2023-05-06T00:07:46.393Z,101743.78
2023-05-06T00:10:13.442Z,101748.03
2023-05-06T00:12:39.940Z,101747.81
2023-05-06T00:15:07.454Z,101749.38
2023-05-06T00:17:34.393Z,101752.31
2023-05-06T00:20:03.664Z,101745.53
2023-05-06T00:22:30.170Z,101743.63
2023-05-06T00:24:56.711Z,101738.22
2023-05-06T00:27:23.272Z,101735.22
2023-05-06T00:29:49.952Z,101739.34
2023-05-06T00:32:21.860Z,101740.69
2023-05-06T00:34:48.405Z,101737.72
2023-05-06T00:37:14.936Z,101742.28
2023-05-06T00:39:41.653Z,101731.31
2023-05-06T00:42:08.174Z,101738.50
2023-05-06T00:44:34.695Z,101728.97
2023-05-06T00:47:01.920Z,101735.22
2023-05-06T00:49:30.098Z,101731.63
2023-05-06T00:51:57.674Z,101731.41
2023-05-06T00:54:27.722Z,101734.06
2023-05-06T00:56:54.588Z,101735.00
2023-05-06T00:59:23.635Z,101735.75
2023-05-06T01:01:52.160Z,101734.56
2023-05-06T01:04:18.724Z,101732.66
2023-05-06T01:07:16.325Z,101729.78
2023-05-06T01:09:53.578Z,101729.78
2023-05-06T01:12:38.785Z,101728.94
2023-05-06T01:15:41.565Z,101722.94
2023-05-06T01:18:20.861Z,101717.84
2023-05-06T01:20:53.625Z,101712.91
2023-05-06T01:23:20.738Z,101721.16
2023-05-06T01:25:47.341Z,101717.09
2023-05-06T01:28:14.267Z,101721.84
2023-05-06T01:30:52.337Z,101715.31
2023-05-06T01:33:42.381Z,101708.69
2023-05-06T01:36:21.241Z,101706.69
2023-05-06T01:38:47.604Z,101708.97
2023-05-06T01:41:16.336Z,101706.09
2023-05-06T01:43:46.317Z,101698.78
2023-05-06T01:46:18.923Z,101701.41
2023-05-06T01:48:49.573Z,101695.75
2023-05-06T01:51:16.118Z,101705.72
2023-05-06T01:53:42.815Z,101705.88
2023-05-06T01:56:09.561Z,101710.63
2023-05-06T01:58:36.148Z,101709.03
2023-05-06T02:01:02.770Z,101721.50
2023-05-06T02:03:31.225Z,101714.63
2023-05-06T02:05:57.825Z,101723.72
2023-05-06T02:08:24.339Z,101714.44
2023-05-06T02:10:51.161Z,101714.63
2023-05-06T02:13:18.789Z,101709.47
2023-05-06T02:15:46.345Z,101714.25
2023-05-06T02:18:12.822Z,101720.69
2023-05-06T02:20:40.791Z,101727.94
2023-05-06T02:23:07.311Z,101725.63
2023-05-06T02:25:33.826Z,101724.47
2023-05-06T02:28:00.376Z,101732.69
2023-05-06T02:30:26.860Z,101728.56
2023-05-06T02:32:53.428Z,101721.72
2023-05-06T02:35:21.037Z,101724.47
2023-05-06T02:37:47.584Z,101720.94
2023-05-06T02:40:14.370Z,101717.44
2023-05-06T02:42:40.876Z,101724.78
2023-05-06T02:45:11.048Z,101718.88
2023-05-06T02:47:38.032Z,101725.84
2023-05-06T02:50:04.877Z,101719.91
2023-05-06T02:52:32.616Z,101713.06
2023-05-06T02:54:59.125Z,101722.94
2023-05-06T02:57:25.769Z,101724.63
2023-05-06T02:59:52.329Z,101720.31
2023-05-06T03:02:18.872Z,101725.69
2023-05-06T03:04:45.416Z,101721.78
2023-05-06T03:07:13.119Z,101729.03
2023-05-06T03:09:42.786Z,101716.38
2023-05-06T03:12:09.320Z,101725.03
2023-05-06T03:14:35.983Z,101715.22
2023-05-06T03:17:03.513Z,101716.75
2023-05-06T03:19:30.057Z,101712.72
2023-05-06T03:21:56.575Z,101712.16
2023-05-06T03:24:23.023Z,101715.81
2023-05-06T03:26:49.617Z,101709.59
2023-05-06T03:29:16.139Z,101711.88
2023-05-06T03:31:42.725Z,101710.63
2023-05-06T03:34:09.281Z,101710.31
2023-05-06T03:36:35.871Z,101715.97
2023-05-06T03:39:02.498Z,101710.28
2023-05-06T03:41:29.900Z,101714.31
2023-05-06T03:43:56.414Z,101713.28
2023-05-06T03:46:22.971Z,101715.81
2023-05-06T03:48:49.526Z,101716.66
2023-05-06T03:51:16.169Z,101716.84
2023-05-06T03:53:42.915Z,101722.41
2023-05-06T03:56:09.693Z,101722.50
2023-05-06T03:58:36.165Z,101718.09
2023-05-06T04:01:02.857Z,101719.97
2023-05-06T04:03:29.420Z,101721.78
2023-05-06T04:05:55.985Z,101719.03
2023-05-06T04:08:22.491Z,101716.41
2023-05-06T04:10:49.032Z,101719.16
2023-05-06T04:13:15.851Z,101721.47
2023-05-06T04:15:42.617Z,101717.16
2023-05-06T04:18:09.288Z,101715.34
2023-05-06T04:20:36.146Z,101715.34
2023-05-06T04:23:03.179Z,101710.84
2023-05-06T04:25:29.987Z,101712.53
2023-05-06T04:27:56.823Z,101721.47
2023-05-06T04:30:23.767Z,101714.06
2023-05-06T04:32:50.505Z,101717.56
2023-05-06T04:35:17.266Z,101718.00
2023-05-06T04:37:44.480Z,101727.94
2023-05-06T04:40:14.000Z,101730.53
2023-05-06T04:42:40.762Z,101737.72
2023-05-06T04:45:08.007Z,101735.00
2023-05-06T04:47:35.164Z,101732.91
2023-05-06T04:50:10.368Z,101743.97
2023-05-06T04:52:37.592Z,101735.34
2023-05-06T04:55:04.531Z,101750.94
2023-05-06T04:57:31.860Z,101757.44
2023-05-06T04:59:58.547Z,101747.84
2023-05-06T05:02:25.214Z,101756.97
2023-05-06T05:04:52.145Z,101754.00
2023-05-06T05:07:19.022Z,101757.38
2023-05-06T05:09:46.142Z,101756.97
2023-05-06T05:12:13.529Z,101762.91
2023-05-06T05:14:40.718Z,101769.03
2023-05-06T05:17:07.838Z,101766.28
2023-05-06T05:19:34.565Z,101765.41
2023-05-06T05:22:01.497Z,101761.59
2023-05-06T05:24:28.375Z,101772.66
2023-05-06T05:26:57.497Z,101769.84
2023-05-06T05:29:24.451Z,101771.06
2023-05-06T05:31:51.258Z,101769.22
2023-05-06T05:34:17.926Z,101781.59
2023-05-06T05:36:44.613Z,101773.53
2023-05-06T05:39:11.690Z,101770.75
2023-05-06T05:41:38.675Z,101773.81
2023-05-06T05:44:05.422Z,101767.81
2023-05-06T05:47:00.253Z,101766.91
2023-05-06T05:49:27.125Z,101777.41
2023-05-06T05:51:53.831Z,101770.56
2023-05-06T05:54:23.314Z,101769.66
2023-05-06T05:56:52.766Z,101776.44
2023-05-06T05:59:19.347Z,101773.66
2023-05-06T06:01:46.210Z,101779.06
2023-05-06T06:04:13.017Z,101780.41
2023-05-06T06:06:41.740Z,101780.66
2023-05-06T06:09:09.235Z,101782.56
2023-05-06T06:11:35.903Z,101775.47
2023-05-06T06:14:02.477Z,101780.06
2023-05-06T06:16:29.346Z,101783.91
2023-05-06T06:19:07.522Z,101772.59
2023-05-06T06:21:34.106Z,101784.75
2023-05-06T06:24:00.716Z,101788.84
2023-05-06T06:26:27.370Z,101785.94
2023-05-06T06:28:53.953Z,101784.13
2023-05-06T06:31:20.643Z,101781.63
2023-05-06T06:33:47.195Z,101787.38
2023-05-06T06:36:13.804Z,101779.78
2023-05-06T06:38:41.423Z,101787.25
2023-05-06T06:41:08.336Z,101780.47
2023-05-06T06:43:34.820Z,101781.78
2023-05-06T06:46:01.706Z,101786.47
2023-05-06T06:48:28.317Z,101785.13
2023-05-06T06:50:54.905Z,101792.13
2023-05-06T06:53:24.401Z,101798.50
2023-05-06T06:55:51.136Z,101797.38
2023-05-06T06:58:17.681Z,101805.69
2023-05-06T07:00:44.248Z,101797.72
2023-05-06T07:03:19.477Z,101796.63
2023-05-06T07:05:46.244Z,101803.38
2023-05-06T07:08:12.813Z,101800.28
2023-05-06T07:10:39.367Z,101799.84
2023-05-06T07:13:06.018Z,101804.00
2023-05-06T07:15:35.994Z,101797.88
2023-05-06T07:18:04.268Z,101798.66
2023-05-06T07:20:30.846Z,101800.88
2023-05-06T07:22:57.463Z,101808.78
2023-05-06T07:25:24.234Z,101811.97
2023-05-06T07:27:50.862Z,101813.31
2023-05-06T07:30:21.708Z,101817.53
2023-05-06T07:32:49.582Z,101808.31
2023-05-06T07:35:16.312Z,101814.59
2023-05-06T07:37:42.928Z,101813.50
2023-05-06T07:40:09.869Z,101808.63
2023-05-06T07:42:36.724Z,101810.66
2023-05-06T07:45:03.744Z,101814.34
2023-05-06T07:47:33.493Z,101810.59
2023-05-06T07:50:00.584Z,101816.06
2023-05-06T07:52:27.716Z,101821.91
2023-05-06T07:54:54.570Z,101820.59
2023-05-06T07:57:21.257Z,101816.94
2023-05-06T07:59:49.446Z,101829.41
2023-05-06T08:02:16.378Z,101833.56
2023-05-06T08:04:43.572Z,101818.56
2023-05-06T08:07:12.895Z,101820.69
2023-05-06T08:09:39.609Z,101819.16
2023-05-06T08:12:06.452Z,101824.19
2023-05-06T08:14:33.015Z,101823.91
2023-05-06T08:16:59.527Z,101824.84
2023-05-06T08:19:26.816Z,101827.91
2023-05-06T08:21:53.549Z,101824.63
2023-05-06T08:24:20.914Z,101830.69
2023-05-06T08:26:47.410Z,101827.34
2023-05-06T08:29:14.065Z,101830.78
2023-05-06T08:31:40.883Z,101832.59
2023-05-06T08:34:07.635Z,101830.19
2023-05-06T08:36:34.296Z,101833.16
2023-05-06T08:39:00.897Z,101831.22
2023-05-06T08:41:30.694Z,101831.31
2023-05-06T08:43:58.359Z,101834.13
2023-05-06T08:46:25.490Z,101835.63
2023-05-06T08:48:53.098Z,101828.50
2023-05-06T08:51:26.226Z,101831.59
2023-05-06T08:53:54.987Z,101831.25
2023-05-06T08:56:28.818Z,101829.38
2023-05-06T08:58:56.340Z,101833.31
2023-05-06T09:01:23.290Z,101830.91
2023-05-06T09:03:50.712Z,101821.75
2023-05-06T09:06:19.647Z,101819.16
2023-05-06T09:08:46.246Z,101812.09
2023-05-06T09:11:22.020Z,101819.06
2023-05-06T09:13:48.793Z,101818.97
2023-05-06T09:16:32.906Z,101821.91
2023-05-06T09:18:59.638Z,101815.56
2023-05-06T09:21:38.335Z,101816.63
2023-05-06T09:24:06.536Z,101815.78
2023-05-06T09:26:35.120Z,101809.94
2023-05-06T09:29:02.319Z,101814.78
2023-05-06T09:31:29.793Z,101813.63
2023-05-06T09:33:57.995Z,101808.28
2023-05-06T09:36:26.179Z,101818.41
2023-05-06T09:38:54.017Z,101808.63
2023-05-06T09:41:22.977Z,101807.31
2023-05-06T09:43:51.067Z,101793.91
2023-05-06T09:46:18.015Z,101805.16
2023-05-06T09:48:45.977Z,101811.84
2023-05-06T09:51:13.311Z,101805.34
2023-05-06T09:53:39.941Z,101800.63
2023-05-06T09:56:07.817Z,101792.06
2023-05-06T09:58:35.357Z,101793.25
2023-05-06T10:01:04.166Z,101789.72
2023-05-06T10:03:35.050Z,101796.59
2023-05-06T10:06:03.007Z,101797.84
2023-05-06T10:08:29.608Z,101797.78
2023-05-06T10:10:56.972Z,101794.97
2023-05-06T10:13:26.454Z,101798.84
2023-05-06T10:15:53.364Z,101804.88
2023-05-06T10:18:21.657Z,101788.16
2023-05-06T10:20:49.441Z,101791.47
2023-05-06T10:23:29.142Z,101785.88
2023-05-06T10:25:57.494Z,101778.28
2023-05-06T10:28:31.831Z,101787.22
2023-05-06T10:30:58.974Z,101782.97
2023-05-06T10:33:26.352Z,101782.28
2023-05-06T10:36:21.544Z,101779.69
2023-05-06T10:39:03.617Z,101781.38
2023-05-06T10:41:31.743Z,101777.56
2023-05-06T10:43:59.449Z,101769.44
2023-05-06T10:46:27.875Z,101765.53
2023-05-06T10:49:04.648Z,101767.75
2023-05-06T10:51:34.761Z,101763.31
2023-05-06T10:54:11.062Z,101762.63
2023-05-06T10:56:39.227Z,101762.22
2023-05-06T10:59:12.880Z,101763.41
2023-05-06T11:01:44.939Z,101771.59
2023-05-06T11:04:13.934Z,101764.06
2023-05-06T11:06:43.234Z,101764.50
2023-05-06T11:09:17.899Z,101769.00
2023-05-06T11:11:51.716Z,101764.69
2023-05-06T11:14:40.480Z,101757.34
2023-05-06T11:17:31.568Z,101769.59
2023-05-06T11:20:22.212Z,101758.13
2023-05-06T11:22:49.047Z,101763.72
2023-05-06T11:25:41.985Z,101757.84
2023-05-06T11:28:12.705Z,101753.22
2023-05-06T11:30:44.129Z,101759.72
2023-05-06T11:33:26.114Z,101757.47
2023-05-06T11:35:53.158Z,101755.63
2023-05-06T11:38:19.664Z,101748.47
2023-05-06T11:40:48.933Z,101754.84
2023-05-06T11:43:16.635Z,101748.25
2023-05-06T11:45:50.861Z,101752.59
2023-05-06T11:48:18.355Z,101745.97
2023-05-06T11:50:47.262Z,101750.19
2023-05-06T11:53:19.418Z,101743.34
2023-05-06T11:55:47.299Z,101744.38
2023-05-06T11:58:19.427Z,101745.53
2023-05-06T12:00:51.331Z,101743.19
2023-05-06T12:03:19.618Z,101743.22
2023-05-06T12:05:48.369Z,101752.38
2023-05-06T12:08:34.961Z,101746.97
2023-05-06T12:11:03.574Z,101741.75
2023-05-06T12:13:30.941Z,101736.31
2023-05-06T12:18:28.178Z,101742.47
2023-05-06T12:20:56.020Z,101745.91
2023-05-06T12:23:23.116Z,101745.00
2023-05-06T12:26:07.479Z,101735.56
2023-05-06T12:28:36.409Z,101738.47
2023-05-06T12:31:26.152Z,101747.28
2023-05-06T12:33:53.298Z,101740.56
2023-05-06T12:36:20.528Z,101752.72
2023-05-06T12:38:54.505Z,101743.72
2023-05-06T12:41:23.212Z,101742.28
2023-05-06T12:43:49.764Z,101737.94
2023-05-06T12:46:17.652Z,101739.59
2023-05-06T12:49:00.593Z,101741.06
2023-05-06T12:51:28.839Z,101727.06
2023-05-06T12:53:55.484Z,101734.06
2023-05-06T12:56:25.331Z,101730.06
2023-05-06T12:58:58.802Z,101736.41
2023-05-06T13:01:28.698Z,101723.47
2023-05-06T13:03:57.597Z,101734.03
2023-05-06T13:06:24.498Z,101724.66
2023-05-06T13:08:51.291Z,101723.19
2023-05-06T13:11:17.856Z,101730.31
2023-05-06T13:13:44.363Z,101732.31
2023-05-06T13:16:10.922Z,101737.13
2023-05-06T13:18:37.503Z,101737.97
2023-05-06T13:21:04.085Z,101732.28
2023-05-06T13:23:31.786Z,101729.31
2023-05-06T13:26:04.694Z,101731.19
2023-05-06T13:28:33.498Z,101735.75
2023-05-06T13:31:00.116Z,101729.81
2023-05-06T13:33:26.848Z,101723.53
2023-05-06T13:35:53.470Z,101724.91
2023-05-06T13:38:19.967Z,101715.06
2023-05-06T13:40:51.986Z,101726.00
2023-05-06T13:43:19.119Z,101720.03
2023-05-06T13:45:45.786Z,101710.34
2023-05-06T13:48:14.268Z,101702.31
2023-05-06T13:50:45.994Z,101703.66
2023-05-06T13:53:15.809Z,101710.09
2023-05-06T13:55:43.325Z,101704.66
2023-05-06T13:58:09.898Z,101701.28
2023-05-06T14:00:36.462Z,101697.28
2023-05-06T14:03:03.144Z,101693.00
2023-05-06T14:05:32.575Z,101694.13
2023-05-06T14:07:59.085Z,101690.06
2023-05-06T14:10:25.543Z,101689.44
2023-05-06T14:12:52.102Z,101689.47
2023-05-06T14:15:18.713Z,101685.84
2023-05-06T14:17:45.197Z,101680.66
2023-05-06T14:20:11.959Z,101672.94
2023-05-06T14:22:41.170Z,101677.63
2023-05-06T14:25:13.613Z,101667.88
2023-05-06T14:27:40.378Z,101669.09
2023-05-06T14:32:48.122Z,101667.81
2023-05-06T14:35:14.696Z,101666.91
2023-05-06T14:37:41.131Z,101663.53
2023-05-06T14:40:11.231Z,101660.94
2023-05-06T14:42:37.947Z,101659.72
2023-05-06T14:45:04.961Z,101664.44
2023-05-06T14:47:31.503Z,101652.97
2023-05-06T14:49:58.143Z,101653.59
2023-05-06T14:52:24.924Z,101654.25
2023-05-06T14:54:51.528Z,101657.53
2023-05-06T14:57:18.284Z,101653.97
2023-05-06T14:59:44.924Z,101655.75
2023-05-06T15:02:11.509Z,101645.00
2023-05-06T15:04:38.123Z,101652.84
2023-05-06T15:07:04.697Z,101653.13
2023-05-06T15:09:31.600Z,101655.16
2023-05-06T15:11:58.354Z,101659.72
2023-05-06T15:14:24.834Z,101653.97
2023-05-06T15:16:55.807Z,101651.84
2023-05-06T15:19:25.421Z,101655.00
2023-05-06T15:21:51.904Z,101650.69
2023-05-06T15:24:18.393Z,101657.22
2023-05-06T15:26:45.209Z,101655.06
2023-05-06T15:29:11.915Z,101649.22
2023-05-06T15:31:40.620Z,101652.78
2023-05-06T15:34:07.765Z,101644.97
2023-05-06T15:36:34.239Z,101650.59
2023-05-06T15:39:01.248Z,101651.63
2023-05-06T15:41:30.664Z,101650.81
2023-05-06T15:43:58.466Z,101649.91
2023-05-06T15:46:26.244Z,101647.94
2023-05-06T15:49:11.171Z,101650.66
2023-05-06T15:51:40.381Z,101648.41
2023-05-06T15:54:08.493Z,101648.41
2023-05-06T15:56:40.638Z,101648.13
2023-05-06T15:59:08.264Z,101654.06
2023-05-06T16:02:00.692Z,101648.47
2023-05-06T16:04:21.637Z,101649.22
2023-05-06T16:06:49.037Z,101654.00
2023-05-06T16:09:15.686Z,101652.72
2023-05-06T16:11:42.218Z,101658.75
2023-05-06T16:14:08.704Z,101653.03
2023-05-06T16:16:35.257Z,101657.34
2023-05-06T16:19:01.887Z,101657.44
2023-05-06T16:21:28.665Z,101654.78
2023-05-06T16:23:55.351Z,101655.19
2023-05-06T16:26:27.655Z,101654.88
2023-05-06T16:28:54.100Z,101650.16
2023-05-06T16:31:20.883Z,101656.13
2023-05-06T16:33:47.484Z,101650.94
2023-05-06T16:36:13.985Z,101648.97
2023-05-06T16:38:40.446Z,101645.75
2023-05-06T16:41:07.148Z,101653.25
2023-05-06T16:43:33.686Z,101646.59
2023-05-06T16:46:00.326Z,101643.63
2023-05-06T16:48:26.952Z,101649.56
2023-05-06T16:50:53.478Z,101647.63
2023-05-06T16:53:20.452Z,101647.72
2023-05-06T16:55:48.814Z,101649.94
2023-05-06T16:58:17.548Z,101650.69
2023-05-06T17:00:44.418Z,101644.19
2023-05-06T17:03:11.439Z,101652.63
2023-05-06T17:05:38.253Z,101653.19
2023-05-06T17:08:05.509Z,101652.91
2023-05-06T17:10:32.179Z,101649.06
2023-05-06T17:12:58.877Z,101645.72
2023-05-06T17:15:27.035Z,101644.16
2023-05-06T17:17:53.662Z,101645.03
2023-05-06T17:20:20.839Z,101644.75
2023-05-06T17:22:47.615Z,101645.47
2023-05-06T17:25:14.824Z,101640.00
2023-05-06T17:27:44.217Z,101645.06
2023-05-06T17:30:15.053Z,101645.13
2023-05-06T17:32:42.322Z,101644.38
2023-05-06T17:35:09.757Z,101646.75
2023-05-06T17:37:36.466Z,101640.44
2023-05-06T17:40:03.976Z,101641.16
2023-05-06T17:42:31.595Z,101644.91
2023-05-06T17:44:58.183Z,101660.44
2023-05-06T17:47:24.713Z,101667.91
2023-05-06T17:49:54.355Z,101671.13
2023-05-06T17:52:20.973Z,101668.84
2023-05-06T17:55:05.832Z,101674.75
2023-05-06T17:57:38.853Z,101684.53
2023-05-06T18:00:10.340Z,101687.66
2023-05-06T18:02:36.942Z,101686.53
2023-05-06T18:05:03.677Z,101701.81
2023-05-06T18:07:30.104Z,101692.81
2023-05-06T18:09:56.640Z,101688.31
2023-05-06T18:12:23.860Z,101698.84
2023-05-06T18:14:50.622Z,101705.94
2023-05-06T18:17:17.081Z,101701.47
2023-05-06T18:19:43.573Z,101705.44
2023-05-06T18:22:10.148Z,101702.13
2023-05-06T18:24:37.313Z,101704.53
2023-05-06T18:27:04.359Z,101704.13
2023-05-06T18:29:32.581Z,101702.09
2023-05-06T18:31:59.538Z,101713.47
2023-05-06T18:34:25.979Z,101702.78
2023-05-06T18:36:52.697Z,101710.00
2023-05-06T18:39:19.417Z,101707.47
2023-05-06T18:41:46.009Z,101711.25
2023-05-06T18:44:12.802Z,101717.28
2023-05-06T18:46:39.498Z,101700.59
2023-05-06T18:49:06.700Z,101709.03
2023-05-06T18:51:33.331Z,101703.84
2023-05-06T18:53:59.964Z,101709.72
2023-05-06T18:56:26.566Z,101708.88
2023-05-06T18:58:53.216Z,101710.56
2023-05-06T19:01:19.776Z,101715.59
2023-05-06T19:03:46.836Z,101720.25
2023-05-06T19:06:13.386Z,101716.59
2023-05-06T19:08:40.242Z,101728.22
2023-05-06T19:11:14.578Z,101732.88
2023-05-06T19:13:44.988Z,101729.22
2023-05-06T19:16:12.381Z,101729.34
2023-05-06T19:18:39.108Z,101728.50
2023-05-06T19:21:05.731Z,101728.22
2023-05-06T19:23:32.819Z,101727.69
2023-05-06T19:25:59.270Z,101732.44
2023-05-06T19:28:27.093Z,101736.25
2023-05-06T19:30:53.678Z,101742.84
2023-05-06T19:33:20.352Z,101745.66
2023-05-06T19:35:47.095Z,101740.19
2023-05-06T19:38:13.489Z,101738.41
2023-05-06T19:40:40.002Z,101737.25
2023-05-06T19:43:07.065Z,101741.47
2023-05-06T19:45:34.185Z,101739.47
2023-05-06T19:48:01.274Z,101738.25
2023-05-06T19:50:34.351Z,101744.09
2023-05-06T19:53:00.796Z,101745.66
2023-05-06T19:55:27.326Z,101738.66
2023-05-06T19:57:56.824Z,101736.13
2023-05-06T20:00:27.486Z,101745.53
2023-05-06T20:02:57.043Z,101741.03
2023-05-06T20:05:24.296Z,101738.78
2023-05-06T20:07:51.253Z,101740.06
2023-05-06T20:10:17.799Z,101739.78
2023-05-06T20:12:44.331Z,101738.78
2023-05-06T20:15:11.152Z,101730.72
2023-05-06T20:17:38.093Z,101735.19
2023-05-06T20:20:09.523Z,101736.59
2023-05-06T20:22:37.143Z,101738.94
2023-05-06T20:25:12.316Z,101733.19
2023-05-06T20:27:41.050Z,101735.59
2023-05-06T20:30:12.598Z,101733.34
2023-05-06T20:32:43.079Z,101731.94
2023-05-06T20:35:10.146Z,101728.59
2023-05-06T20:37:36.868Z,101738.94
2023-05-06T20:40:05.790Z,101739.78
2023-05-06T20:42:34.977Z,101743.56
2023-05-06T20:45:01.445Z,101735.72
2023-05-06T20:47:28.077Z,101745.09
2023-05-06T20:49:55.122Z,101736.56
2023-05-06T20:52:22.036Z,101740.91
2023-05-06T20:54:49.337Z,101748.91
2023-05-06T20:57:16.881Z,101742.16
2023-05-06T20:59:43.921Z,101738.66
2023-05-06T21:02:10.689Z,101742.31
2023-05-06T21:04:37.328Z,101738.66
2023-05-06T21:07:03.809Z,101745.22
2023-05-06T21:09:30.338Z,101739.91
2023-05-06T21:11:57.202Z,101739.06
2023-05-06T21:14:24.888Z,101736.97
2023-05-06T21:16:52.154Z,101734.03
2023-05-06T21:19:18.838Z,101729.66
2023-05-06T21:21:45.742Z,101725.34
2023-05-06T21:24:12.911Z,101730.50
2023-05-06T21:26:42.624Z,101725.75
2023-05-06T21:29:09.212Z,101721.41
2023-05-06T21:31:35.748Z,101721.69
2023-05-06T21:34:03.488Z,101718.88
2023-05-06T21:36:29.979Z,101714.41
2023-05-06T21:39:11.989Z,101709.22
2023-05-06T21:41:40.516Z,101712.31
2023-05-06T21:44:09.081Z,101717.06
2023-05-06T21:46:37.157Z,101714.81
2023-05-06T21:49:04.100Z,101720.41
2023-05-06T21:51:35.931Z,101725.88
2023-05-06T21:54:03.406Z,101723.38
2023-05-06T21:56:30.254Z,101726.31
2023-05-06T21:58:56.819Z,101730.78
2023-05-06T22:01:26.176Z,101729.69
2023-05-06T22:03:53.884Z,101729.97
2023-05-06T22:06:20.658Z,101733.03
2023-05-06T22:08:47.116Z,101726.84
2023-05-06T22:11:16.536Z,101725.19
2023-05-06T22:13:43.200Z,101727.84
2023-05-06T22:16:09.827Z,101730.50
2023-05-06T22:18:41.150Z,101734.84
2023-05-06T22:21:08.623Z,101729.38
2023-05-06T22:23:35.474Z,101732.88
2023-05-06T22:26:01.934Z,101733.59
2023-05-06T22:28:28.414Z,101737.09
2023-05-06T22:30:56.560Z,101729.13
2023-05-06T22:33:27.950Z,101725.59
2023-05-06T22:35:55.506Z,101729.38
2023-05-06T22:38:22.307Z,101730.22
2023-05-06T22:40:48.859Z,101731.19
2023-05-06T22:43:15.486Z,101733.41
2023-05-06T22:45:41.933Z,101738.34
2023-05-06T22:48:08.539Z,101736.66
2023-05-06T22:50:35.271Z,101743.94
2023-05-06T22:53:10.267Z,101746.59
2023-05-06T22:55:40.887Z,101746.19
2023-05-06T22:58:07.374Z,101743.66
2023-05-06T23:00:33.906Z,101738.16
2023-05-06T23:03:00.706Z,101741.22
2023-05-06T23:05:27.217Z,101740.81
2023-05-06T23:07:53.769Z,101735.88
2023-05-06T23:10:20.292Z,101738.53
2023-05-06T23:12:46.897Z,101746.53
2023-05-06T23:15:13.561Z,101736.88
2023-05-06T23:17:40.457Z,101738.53
2023-05-06T23:20:09.074Z,101736.03
2023-05-06T23:22:35.702Z,101737.13
2023-05-06T23:25:02.288Z,101737.13
2023-05-06T23:27:28.748Z,101743.88
2023-05-06T23:29:55.315Z,101746.53
2023-05-06T23:32:21.838Z,101745.09
2023-05-06T23:34:49.156Z,101743.00
2023-05-06T23:37:17.602Z,101744.38
2023-05-06T23:39:44.187Z,101732.44
2023-05-06T23:42:11.166Z,101737.09
2023-05-06T23:44:37.712Z,101737.09
2023-05-06T23:47:05.223Z,101738.06
2023-05-06T23:49:32.245Z,101743.50
2023-05-06T23:51:58.761Z,101743.91
2023-05-06T23:54:25.726Z,101743.91
2023-05-06T23:56:52.133Z,101747.41
2023-05-06T23:59:18.931Z,101740.66
